createdAt,value
2023-02-06T00:00:54.472Z,52.2
2023-02-06T00:01:58.847Z,52.1
2023-02-06T00:03:03.179Z,52.05
2023-02-06T00:04:07.484Z,52.22
2023-02-06T00:05:11.779Z,52.23
2023-02-06T00:06:16.055Z,52.12
2023-02-06T00:07:20.358Z,52.1
2023-02-06T00:08:24.634Z,52.13
2023-02-06T00:09:29.010Z,52.58
2023-02-06T00:10:33.307Z,52.62
2023-02-06T00:11:37.612Z,52.53
2023-02-06T00:12:41.905Z,52.55
2023-02-06T00:13:46.176Z,52.5
2023-02-06T00:14:50.513Z,52.65
2023-02-06T00:15:55.004Z,52.96
2023-02-06T00:16:59.296Z,52.89
2023-02-06T00:18:03.581Z,52.79
2023-02-06T00:19:07.831Z,53.11
2023-02-06T00:20:12.102Z,52.98
2023-02-06T00:21:16.411Z,53.1
2023-02-06T00:22:20.727Z,53.32
2023-02-06T00:23:25.005Z,53.47
2023-02-06T00:24:29.278Z,53.68
2023-02-06T00:25:35.235Z,53.3
2023-02-06T00:26:39.660Z,53.47
2023-02-06T00:27:44.096Z,53.53
2023-02-06T00:28:48.366Z,53.43
2023-02-06T00:29:52.664Z,53.34
2023-02-06T00:30:57.279Z,53.28
2023-02-06T00:32:01.598Z,53.36
2023-02-06T00:33:05.938Z,53.47
2023-02-06T00:34:10.219Z,53.63
2023-02-06T00:35:14.522Z,53.48
2023-02-06T00:36:18.826Z,53.55
2023-02-06T00:37:23.114Z,53.47
2023-02-06T00:38:27.439Z,53.68
2023-02-06T00:39:31.703Z,53.63
2023-02-06T00:40:37.027Z,53.56
2023-02-06T00:41:41.307Z,53.78
2023-02-06T00:42:45.634Z,53.8
2023-02-06T00:43:49.952Z,53.78
2023-02-06T00:44:54.252Z,53.91
2023-02-06T00:45:58.578Z,53.91
2023-02-06T00:47:02.876Z,54.07
2023-02-06T00:48:07.173Z,53.94
2023-02-06T00:49:11.670Z,53.82
2023-02-06T00:50:15.945Z,54.06
2023-02-06T00:51:20.256Z,54.08
2023-02-06T00:52:24.532Z,54.18
2023-02-06T00:53:28.819Z,54.15
2023-02-06T00:54:33.093Z,54
2023-02-06T00:55:38.171Z,54.06
2023-02-06T00:56:42.455Z,54.18
2023-02-06T00:57:46.726Z,54.29
2023-02-06T00:58:51.011Z,54.33
2023-02-06T00:59:55.379Z,54.42
2023-02-06T01:00:59.646Z,54.59
2023-02-06T01:02:04.113Z,54.69
2023-02-06T01:03:08.424Z,54.73
2023-02-06T01:04:12.692Z,54.83
2023-02-06T01:05:16.974Z,54.66
2023-02-06T01:06:21.392Z,54.8
2023-02-06T01:07:25.681Z,54.64
2023-02-06T01:08:30.002Z,54.91
2023-02-06T01:09:34.282Z,55.06
2023-02-06T01:10:38.711Z,54.97
2023-02-06T01:11:43.015Z,54.85
2023-02-06T01:12:47.321Z,54.8
2023-02-06T01:13:51.596Z,55.01
2023-02-06T01:14:55.868Z,55.09
2023-02-06T01:16:00.260Z,54.81
2023-02-06T01:17:04.551Z,55.22
2023-02-06T01:18:08.881Z,55.17
2023-02-06T01:19:13.655Z,54.99
2023-02-06T01:20:17.965Z,55.13
2023-02-06T01:21:22.257Z,55.24
2023-02-06T01:22:26.521Z,55.23
2023-02-06T01:23:30.823Z,55.24
2023-02-06T01:24:35.120Z,55.28
2023-02-06T01:25:39.843Z,55.33
2023-02-06T01:26:44.120Z,55.54
2023-02-06T01:27:48.645Z,55.45
2023-02-06T01:28:52.965Z,55.53
2023-02-06T01:29:57.225Z,55.4
2023-02-06T01:31:02.030Z,55.8
2023-02-06T01:32:06.352Z,55.52
2023-02-06T01:33:10.617Z,55.53
2023-02-06T01:34:14.942Z,55.58
2023-02-06T01:35:19.212Z,55.72
2023-02-06T01:36:23.517Z,55.7
2023-02-06T01:37:27.778Z,55.84
2023-02-06T01:38:32.130Z,55.66
2023-02-06T01:39:36.416Z,55.91
2023-02-06T01:40:40.705Z,55.98
2023-02-06T01:41:44.996Z,55.71
2023-02-06T01:42:49.274Z,55.88
2023-02-06T01:43:55.862Z,55.63
2023-02-06T01:45:00.179Z,55.86
2023-02-06T01:46:04.462Z,55.84
2023-02-06T01:47:08.753Z,55.92
2023-02-06T01:48:13.058Z,56.01
2023-02-06T01:49:17.402Z,56.19
2023-02-06T01:50:21.757Z,56.22
2023-02-06T01:51:26.061Z,55.96
2023-02-06T01:52:30.347Z,56.09
2023-02-06T01:53:34.681Z,56.11
2023-02-06T01:54:38.972Z,56.2
2023-02-06T01:55:43.556Z,56.4
2023-02-06T01:56:47.918Z,56.07
2023-02-06T01:57:52.218Z,56.19
2023-02-06T01:58:56.503Z,56.27
2023-02-06T02:00:00.966Z,56.32
2023-02-06T02:01:05.555Z,56.29
2023-02-06T02:02:10.128Z,56.25
2023-02-06T02:03:14.415Z,56.24
2023-02-06T02:04:18.706Z,56.5
2023-02-06T02:05:23.009Z,56.5
2023-02-06T02:06:27.294Z,56.43
2023-02-06T02:07:31.596Z,56.33
2023-02-06T02:08:35.912Z,56.84
2023-02-06T02:09:40.194Z,56.83
2023-02-06T02:10:44.473Z,56.3
2023-02-06T02:11:48.758Z,56.34
2023-02-06T02:12:53.063Z,56.42
2023-02-06T02:13:57.355Z,56.75
2023-02-06T02:15:01.650Z,56.7
2023-02-06T02:16:06.114Z,56.67
2023-02-06T02:17:10.424Z,56.58
2023-02-06T02:18:14.715Z,56.57
2023-02-06T02:19:18.981Z,56.75
2023-02-06T02:20:23.248Z,56.8
2023-02-06T02:21:27.608Z,56.46
2023-02-06T02:22:31.886Z,57.04
2023-02-06T02:23:36.163Z,56.94
2023-02-06T02:24:40.467Z,57.36
2023-02-06T02:25:44.754Z,57.12
2023-02-06T02:26:49.052Z,57.18
2023-02-06T02:27:53.445Z,57.06
2023-02-06T02:28:57.772Z,56.82
2023-02-06T02:30:02.136Z,56.74
2023-02-06T02:31:06.580Z,57.07
2023-02-06T02:32:10.902Z,56.85
2023-02-06T02:33:15.171Z,57.18
2023-02-06T02:34:19.481Z,56.77
2023-02-06T02:35:23.804Z,57.11
2023-02-06T02:36:28.098Z,57.24
2023-02-06T02:37:32.399Z,57.02
2023-02-06T02:38:36.683Z,56.96
2023-02-06T02:39:40.969Z,56.59
2023-02-06T02:40:45.234Z,57.02
2023-02-06T02:41:49.486Z,56.61
2023-02-06T02:42:53.764Z,57
2023-02-06T02:43:58.039Z,56.81
2023-02-06T02:45:02.318Z,57.01
2023-02-06T02:46:06.744Z,56.64
2023-02-06T02:47:11.111Z,56.54
2023-02-06T02:48:15.401Z,56.49
2023-02-06T02:49:19.659Z,56.69
2023-02-06T02:50:23.933Z,56.85
2023-02-06T02:51:28.218Z,56.76
2023-02-06T02:52:32.517Z,56.67
2023-02-06T02:53:36.831Z,56.69
2023-02-06T02:54:44.116Z,56.58
2023-02-06T02:55:48.407Z,56.67
2023-02-06T02:56:52.675Z,56.81
2023-02-06T02:57:56.969Z,56.65
2023-02-06T02:59:01.291Z,56.54
2023-02-06T03:00:05.597Z,56.62
2023-02-06T03:01:10.345Z,56.74
2023-02-06T03:02:14.901Z,56.69
2023-02-06T03:03:19.248Z,56.34
2023-02-06T03:04:23.568Z,56.51
2023-02-06T03:05:27.886Z,56.25
2023-02-06T03:06:32.181Z,56.32
2023-02-06T03:07:36.475Z,56.36
2023-02-06T03:08:40.765Z,56.25
2023-02-06T03:09:47.799Z,56.42
2023-02-06T03:10:52.054Z,56.56
2023-02-06T03:11:56.362Z,56.67
2023-02-06T03:13:00.632Z,56.66
2023-02-06T03:14:04.907Z,56.9
2023-02-06T03:15:09.218Z,56.78
2023-02-06T03:16:13.655Z,56.74
2023-02-06T03:17:17.954Z,56.71
2023-02-06T03:18:22.255Z,56.78
2023-02-06T03:19:26.536Z,56.87
2023-02-06T03:20:30.881Z,56.58
2023-02-06T03:21:35.222Z,56.84
2023-02-06T03:22:39.529Z,56.85
2023-02-06T03:23:43.825Z,56.67
2023-02-06T03:24:48.172Z,56.79
2023-02-06T03:25:52.459Z,56.83
2023-02-06T03:26:56.750Z,56.55
2023-02-06T03:28:01.244Z,56.96
2023-02-06T03:29:05.519Z,56.83
2023-02-06T03:30:09.823Z,56.71
2023-02-06T03:31:14.104Z,56.71
2023-02-06T03:32:18.380Z,56.8
2023-02-06T03:33:22.692Z,56.74
2023-02-06T03:34:26.983Z,56.86
2023-02-06T03:35:31.263Z,56.74
2023-02-06T03:36:35.553Z,56.67
2023-02-06T03:37:39.837Z,56.62
2023-02-06T03:38:44.100Z,56.74
2023-02-06T03:39:48.362Z,56.56
2023-02-06T03:40:52.612Z,56.84
2023-02-06T03:41:56.916Z,56.68
2023-02-06T03:43:01.209Z,56.7
2023-02-06T03:44:05.498Z,56.47
2023-02-06T03:45:09.908Z,56.69
2023-02-06T03:46:14.326Z,56.79
2023-02-06T03:47:18.656Z,56.57
2023-02-06T03:48:22.953Z,56.6
2023-02-06T03:49:27.283Z,56.51
2023-02-06T03:50:31.610Z,56.73
2023-02-06T03:51:35.870Z,56.4
2023-02-06T03:52:40.185Z,56.45
2023-02-06T03:53:44.498Z,56.59
2023-02-06T03:54:48.785Z,56.6
2023-02-06T03:55:53.065Z,56.59
2023-02-06T03:56:57.376Z,56.68
2023-02-06T03:58:01.674Z,56.48
2023-02-06T03:59:06.015Z,56.73
2023-02-06T04:00:10.438Z,56.76
2023-02-06T04:01:14.891Z,56.63
2023-02-06T04:02:19.322Z,56.69
2023-02-06T04:03:23.673Z,56.52
2023-02-06T04:04:27.960Z,56.46
2023-02-06T04:05:32.247Z,56.64
2023-02-06T04:06:36.562Z,56.63
2023-02-06T04:07:40.867Z,56.67
2023-02-06T04:08:45.363Z,56.59
2023-02-06T04:09:49.655Z,56.62
2023-02-06T04:10:53.917Z,56.66
2023-02-06T04:11:58.358Z,56.8
2023-02-06T04:13:02.641Z,56.83
2023-02-06T04:14:06.957Z,57.01
2023-02-06T04:15:11.332Z,56.85
2023-02-06T04:16:15.711Z,56.76
2023-02-06T04:18:00.834Z,57.25
2023-02-06T04:19:05.518Z,56.73
2023-02-06T04:20:09.820Z,56.81
2023-02-06T04:21:14.124Z,57.75
2023-02-06T04:22:18.506Z,57.26
2023-02-06T04:23:22.816Z,57.05
2023-02-06T04:24:28.342Z,57.34
2023-02-06T04:25:33.560Z,57.51
2023-02-06T04:26:37.841Z,57.57
2023-02-06T04:27:42.122Z,57.25
2023-02-06T04:28:46.397Z,57.6
2023-02-06T04:29:50.670Z,57.3
2023-02-06T04:30:55.401Z,57.58
2023-02-06T04:31:59.711Z,57.69
2023-02-06T04:33:04.014Z,57.16
2023-02-06T04:34:08.292Z,57.31
2023-02-06T04:35:12.782Z,57.28
2023-02-06T04:36:17.087Z,57.44
2023-02-06T04:37:21.364Z,57.4
2023-02-06T04:38:25.686Z,57.33
2023-02-06T04:39:29.947Z,57.9
2023-02-06T04:40:34.260Z,57.72
2023-02-06T04:41:38.587Z,57.75
2023-02-06T04:42:42.850Z,57.84
2023-02-06T04:43:47.150Z,57.91
2023-02-06T04:44:51.416Z,57.78
2023-02-06T04:45:55.882Z,57.8
2023-02-06T04:47:00.182Z,57.82
2023-02-06T04:48:04.460Z,57.74
2023-02-06T04:49:08.754Z,57.78
2023-02-06T04:50:13.048Z,57.76
2023-02-06T04:51:17.321Z,57.63
2023-02-06T04:52:21.601Z,57.68
2023-02-06T04:53:25.864Z,57.75
2023-02-06T04:54:32.904Z,57.97
2023-02-06T04:55:38.376Z,57.83
2023-02-06T04:56:42.735Z,57.7
2023-02-06T04:57:47.039Z,57.55
2023-02-06T04:58:51.305Z,57.96
2023-02-06T04:59:55.569Z,58.25
2023-02-06T05:00:59.863Z,57.97
2023-02-06T05:02:04.220Z,57.93
2023-02-06T05:03:08.517Z,58.14
2023-02-06T05:04:12.794Z,58.24
2023-02-06T05:05:17.078Z,57.89
2023-02-06T05:06:21.339Z,57.17
2023-02-06T05:07:25.650Z,56.82
2023-02-06T05:08:29.919Z,55.51
2023-02-06T05:09:34.260Z,54.17
2023-02-06T05:10:38.529Z,53.16
2023-02-06T05:11:42.817Z,52.44
2023-02-06T05:12:47.124Z,52.23
2023-02-06T05:13:51.464Z,51.69
2023-02-06T05:14:55.861Z,51.3
2023-02-06T05:16:00.282Z,51.77
2023-02-06T05:17:04.585Z,51.43
2023-02-06T05:18:08.873Z,51
2023-02-06T05:19:13.465Z,50.83
2023-02-06T05:20:17.810Z,50.39
2023-02-06T05:21:22.187Z,50.15
2023-02-06T05:22:26.463Z,50.06
2023-02-06T05:23:30.734Z,49.78
2023-02-06T05:24:35.033Z,49.56
2023-02-06T05:25:42.351Z,49.5
2023-02-06T05:26:46.677Z,49.36
2023-02-06T05:27:51.377Z,49.36
2023-02-06T05:28:55.674Z,49.32
2023-02-06T05:29:59.995Z,49.16
2023-02-06T05:31:04.754Z,49.09
2023-02-06T05:32:09.126Z,49.16
2023-02-06T05:33:13.401Z,48.88
2023-02-06T05:34:17.687Z,48.89
2023-02-06T05:35:22.008Z,48.8
2023-02-06T05:36:26.297Z,48.74
2023-02-06T05:37:30.634Z,48.7
2023-02-06T05:38:34.922Z,48.73
2023-02-06T05:39:39.190Z,48.68
2023-02-06T05:40:43.495Z,48.59
2023-02-06T05:41:47.787Z,48.65
2023-02-06T05:42:52.051Z,48.64
2023-02-06T05:43:56.377Z,48.58
2023-02-06T05:45:00.678Z,48.58
2023-02-06T05:46:05.063Z,48.56
2023-02-06T05:47:09.366Z,48.49
2023-02-06T05:48:13.666Z,48.5
2023-02-06T05:49:17.958Z,48.42
2023-02-06T05:50:22.252Z,48.5
2023-02-06T05:51:26.569Z,48.5
2023-02-06T05:52:30.829Z,48.49
2023-02-06T05:53:35.138Z,48.46
2023-02-06T05:54:39.623Z,48.49
2023-02-06T05:55:43.909Z,48.55
2023-02-06T05:56:48.205Z,48.51
2023-02-06T05:57:52.517Z,48.42
2023-02-06T05:58:56.815Z,48.35
2023-02-06T06:00:01.142Z,48.37
2023-02-06T06:01:05.464Z,48.31
2023-02-06T06:02:09.760Z,48.29
2023-02-06T06:03:14.096Z,48.4
2023-02-06T06:04:18.524Z,48.16
2023-02-06T06:05:22.820Z,48.41
2023-02-06T06:06:27.106Z,48.29
2023-02-06T06:07:31.430Z,48.25
2023-02-06T06:08:35.739Z,48.25
2023-02-06T06:09:40.061Z,48.29
2023-02-06T06:10:44.352Z,48.43
2023-02-06T06:11:48.624Z,48.41
2023-02-06T06:12:52.919Z,48.5
2023-02-06T06:13:57.230Z,48.48
2023-02-06T06:15:01.567Z,48.55
2023-02-06T06:16:06.176Z,48.54
2023-02-06T06:17:10.527Z,48.69
2023-02-06T06:18:15.089Z,48.7
2023-02-06T06:19:19.386Z,48.83
2023-02-06T06:20:23.689Z,48.94
2023-02-06T06:21:27.994Z,49.04
2023-02-06T06:22:32.287Z,49
2023-02-06T06:23:36.548Z,48.95
2023-02-06T06:24:40.885Z,49.02
2023-02-06T06:25:45.170Z,49.13
2023-02-06T06:26:49.489Z,49.43
2023-02-06T06:27:53.959Z,49.25
2023-02-06T06:28:58.313Z,49.24
2023-02-06T06:30:02.674Z,49.14
2023-02-06T06:31:07.244Z,49.06
2023-02-06T06:32:11.588Z,49.07
2023-02-06T06:33:16.121Z,49.22
2023-02-06T06:34:20.409Z,49.39
2023-02-06T06:35:24.681Z,48.81
2023-02-06T06:36:28.999Z,48.62
2023-02-06T06:37:33.287Z,48.43
2023-02-06T06:38:37.585Z,48.29
2023-02-06T06:39:41.898Z,48.1
2023-02-06T06:40:46.197Z,47.87
2023-02-06T06:41:50.513Z,47.58
2023-02-06T06:42:54.839Z,47.4
2023-02-06T06:43:59.142Z,47.21
2023-02-06T06:45:03.436Z,47.23
2023-02-06T06:46:07.994Z,47.09
2023-02-06T06:47:12.331Z,46.98
2023-02-06T06:48:16.654Z,46.93
2023-02-06T06:49:20.940Z,46.86
2023-02-06T06:50:25.205Z,46.82
2023-02-06T06:51:29.478Z,46.84
2023-02-06T06:52:33.760Z,46.81
2023-02-06T06:53:38.068Z,46.93
2023-02-06T06:54:42.360Z,46.89
2023-02-06T06:55:46.630Z,46.8
2023-02-06T06:56:50.932Z,46.82
2023-02-06T06:57:55.210Z,46.91
2023-02-06T06:58:59.500Z,46.88
2023-02-06T07:00:03.790Z,47.05
2023-02-06T07:01:08.199Z,47.03
2023-02-06T07:02:14.846Z,47.14
2023-02-06T07:03:19.395Z,47.16
2023-02-06T07:04:23.790Z,47.25
2023-02-06T07:05:28.336Z,47.24
2023-02-06T07:06:32.628Z,47.29
2023-02-06T07:07:37.041Z,47.45
2023-02-06T07:08:41.343Z,47.25
2023-02-06T07:09:45.639Z,47.43
2023-02-06T07:10:49.950Z,47.43
2023-02-06T07:11:54.208Z,47.52
2023-02-06T07:12:58.514Z,47.43
2023-02-06T07:14:02.823Z,47.48
2023-02-06T07:15:07.130Z,47.73
2023-02-06T07:16:11.602Z,47.76
2023-02-06T07:17:15.863Z,47.81
2023-02-06T07:18:20.374Z,47.84
2023-02-06T07:19:24.751Z,47.77
2023-02-06T07:20:29.061Z,47.97
2023-02-06T07:21:33.350Z,48.13
2023-02-06T07:22:37.689Z,47.97
2023-02-06T07:23:41.998Z,48.12
2023-02-06T07:24:46.372Z,48.3
2023-02-06T07:25:50.627Z,48.43
2023-02-06T07:26:54.891Z,48.18
2023-02-06T07:27:59.292Z,48.17
2023-02-06T07:29:03.605Z,48.31
2023-02-06T07:30:08.642Z,48.37
2023-02-06T07:31:12.962Z,48.16
2023-02-06T07:32:17.283Z,48.54
2023-02-06T07:33:21.589Z,48.49
2023-02-06T07:34:25.856Z,48.61
2023-02-06T07:35:30.317Z,48.52
2023-02-06T07:36:34.599Z,48.37
2023-02-06T07:37:38.888Z,48.48
2023-02-06T07:38:43.173Z,48.75
2023-02-06T07:39:47.426Z,48.47
2023-02-06T07:40:54.262Z,48.55
2023-02-06T07:41:58.550Z,47.45
2023-02-06T07:43:02.866Z,47.66
2023-02-06T07:44:07.177Z,47.35
2023-02-06T07:45:11.496Z,47.2
2023-02-06T07:46:15.908Z,46.97
2023-02-06T07:47:20.236Z,46.73
2023-02-06T07:48:24.564Z,46.49
2023-02-06T07:49:28.851Z,46.49
2023-02-06T07:50:33.108Z,46.37
2023-02-06T07:51:37.413Z,46.25
2023-02-06T07:52:41.701Z,46.16
2023-02-06T07:53:46.018Z,46.11
2023-02-06T07:54:50.330Z,45.86
2023-02-06T07:55:54.619Z,45.95
2023-02-06T07:56:58.899Z,46.05
2023-02-06T07:58:03.195Z,46.1
2023-02-06T07:59:07.521Z,45.91
2023-02-06T08:00:11.827Z,46.18
2023-02-06T08:01:16.340Z,46.19
2023-02-06T08:02:23.684Z,46.24
2023-02-06T08:03:28.240Z,46.34
2023-02-06T08:04:32.784Z,46.5
2023-02-06T08:05:38.510Z,46.27
2023-02-06T08:06:42.838Z,46.25
2023-02-06T08:07:47.128Z,46.4
2023-02-06T08:08:51.421Z,46.48
2023-02-06T08:09:55.734Z,46.43
2023-02-06T08:11:00.016Z,46.6
2023-02-06T08:12:04.341Z,46.58
2023-02-06T08:13:08.719Z,46.58
2023-02-06T08:14:13.041Z,46.65
2023-02-06T08:15:17.337Z,46.75
2023-02-06T08:16:21.971Z,46.84
2023-02-06T08:17:26.367Z,46.77
2023-02-06T08:18:30.670Z,47
2023-02-06T08:19:34.962Z,47.07
2023-02-06T08:20:39.281Z,47.15
2023-02-06T08:21:43.607Z,47
2023-02-06T08:22:47.930Z,47.33
2023-02-06T08:23:52.229Z,46.95
2023-02-06T08:24:56.515Z,47.51
2023-02-06T08:26:00.812Z,47.53
2023-02-06T08:27:05.137Z,47.66
2023-02-06T08:28:09.588Z,47.92
2023-02-06T08:29:13.886Z,48.08
2023-02-06T08:30:18.174Z,48.06
2023-02-06T08:31:23.018Z,48.12
2023-02-06T08:32:27.431Z,48.25
2023-02-06T08:33:31.735Z,48.25
2023-02-06T08:34:35.997Z,48.29
2023-02-06T08:35:40.257Z,48.52
2023-02-06T08:36:45.672Z,48.38
2023-02-06T08:37:49.965Z,48.33
2023-02-06T08:38:54.255Z,48.29
2023-02-06T08:39:58.543Z,48.37
2023-02-06T08:41:02.815Z,48.38
2023-02-06T08:42:07.163Z,48.61
2023-02-06T08:43:11.442Z,48.31
2023-02-06T08:44:15.784Z,48.46
2023-02-06T08:45:20.056Z,48.44
2023-02-06T08:46:24.522Z,48.51
2023-02-06T08:47:28.940Z,48.46
2023-02-06T08:48:33.239Z,48.43
2023-02-06T08:49:37.592Z,48.43
2023-02-06T08:50:41.880Z,48.56
2023-02-06T08:51:48.634Z,48.56
2023-02-06T08:52:52.907Z,48.55
2023-02-06T08:53:57.418Z,48.52
2023-02-06T08:55:01.740Z,48.48
2023-02-06T08:56:06.027Z,48.58
2023-02-06T08:57:10.297Z,48.45
2023-02-06T08:58:14.599Z,48.56
2023-02-06T08:59:18.892Z,48.43
2023-02-06T09:00:23.348Z,48.24
2023-02-06T09:01:27.830Z,47.87
2023-02-06T09:02:32.250Z,47.68
2023-02-06T09:03:36.607Z,46.08
2023-02-06T09:04:40.960Z,42.48
2023-02-06T09:05:45.236Z,40.86
2023-02-06T09:06:49.531Z,39.55
2023-02-06T09:07:53.828Z,38.39
2023-02-06T09:08:58.119Z,37.14
2023-02-06T09:10:02.393Z,37.03
2023-02-06T09:11:06.718Z,37.48
2023-02-06T09:12:11.066Z,40.63
2023-02-06T09:13:15.374Z,42.84
2023-02-06T09:14:19.657Z,41.6
2023-02-06T09:15:23.935Z,41.72
2023-02-06T09:16:28.276Z,41.11
2023-02-06T09:17:32.561Z,41.11
2023-02-06T09:18:36.856Z,41.15
2023-02-06T09:19:41.178Z,41.33
2023-02-06T09:20:45.472Z,41.68
2023-02-06T09:21:49.823Z,41.69
2023-02-06T09:22:54.135Z,41.75
2023-02-06T09:23:58.430Z,42.07
2023-02-06T09:25:02.734Z,42.13
2023-02-06T09:26:07.018Z,42.59
2023-02-06T09:27:11.301Z,42.53
2023-02-06T09:28:15.752Z,42.71
2023-02-06T09:29:20.047Z,42.85
2023-02-06T09:30:24.452Z,43.06
2023-02-06T09:31:29.089Z,43
2023-02-06T09:32:33.674Z,43.38
2023-02-06T09:33:37.990Z,43.29
2023-02-06T09:34:42.374Z,43.51
2023-02-06T09:35:46.641Z,43.58
2023-02-06T09:36:50.927Z,43.74
2023-02-06T09:37:55.201Z,44.18
2023-02-06T09:38:59.578Z,43.78
2023-02-06T09:40:03.921Z,44.06
2023-02-06T09:41:08.194Z,44.17
2023-02-06T09:42:12.467Z,44.34
2023-02-06T09:43:16.749Z,44.34
2023-02-06T09:44:21.048Z,44.4
2023-02-06T09:45:25.338Z,44.7
2023-02-06T09:46:29.824Z,44.7
2023-02-06T09:47:34.178Z,44.82
2023-02-06T09:48:38.469Z,44.92
2023-02-06T09:49:42.768Z,45.36
2023-02-06T09:50:47.047Z,45.47
2023-02-06T09:51:51.353Z,45.52
2023-02-06T09:52:55.677Z,45.67
2023-02-06T09:53:59.977Z,45.31
2023-02-06T09:55:04.298Z,45.77
2023-02-06T09:56:08.574Z,45.53
2023-02-06T09:57:12.873Z,45.94
2023-02-06T09:58:17.238Z,45.9
2023-02-06T09:59:21.498Z,46.32
2023-02-06T10:00:25.816Z,46.19
2023-02-06T10:01:30.524Z,46.11
2023-02-06T10:02:35.053Z,45.85
2023-02-06T10:03:39.360Z,46.2
2023-02-06T10:04:43.698Z,46.04
2023-02-06T10:05:48.043Z,45.9
2023-02-06T10:06:52.337Z,45.84
2023-02-06T10:07:56.679Z,45.84
2023-02-06T10:09:01.010Z,45.93
2023-02-06T10:10:05.518Z,46.14
2023-02-06T10:11:10.094Z,46.02
2023-02-06T10:12:14.402Z,46.02
2023-02-06T10:13:18.677Z,46.04
2023-02-06T10:14:22.967Z,46.09
2023-02-06T10:15:27.318Z,45.94
2023-02-06T10:16:31.936Z,46.16
2023-02-06T10:17:36.252Z,46.02
2023-02-06T10:18:40.634Z,46.2
2023-02-06T10:19:45.128Z,46.26
2023-02-06T10:20:49.401Z,45.6
2023-02-06T10:21:53.961Z,45.78
2023-02-06T10:22:58.232Z,45.49
2023-02-06T10:24:02.545Z,45.13
2023-02-06T10:25:06.885Z,44.89
2023-02-06T10:26:11.233Z,44.8
2023-02-06T10:27:15.802Z,44.79
2023-02-06T10:28:20.260Z,44.52
2023-02-06T10:29:24.613Z,44.42
2023-02-06T10:30:29.054Z,44.28
2023-02-06T10:31:33.690Z,44.23
2023-02-06T10:32:37.977Z,44.14
2023-02-06T10:33:42.278Z,44.05
2023-02-06T10:34:46.572Z,44
2023-02-06T10:35:50.889Z,44.21
2023-02-06T10:36:55.209Z,43.9
2023-02-06T10:37:59.476Z,43.91
2023-02-06T10:39:04.799Z,44.1
2023-02-06T10:40:09.076Z,43.92
2023-02-06T10:41:13.607Z,44.09
2023-02-06T10:42:17.979Z,44.13
2023-02-06T10:43:22.321Z,44.18
2023-02-06T10:44:26.784Z,44.3
2023-02-06T10:45:31.125Z,44.25
2023-02-06T10:46:35.640Z,44.51
2023-02-06T10:47:39.961Z,44.52
2023-02-06T10:48:44.294Z,44.6
2023-02-06T10:49:48.718Z,44.71
2023-02-06T10:50:53.005Z,44.84
2023-02-06T10:51:57.309Z,44.86
2023-02-06T10:53:01.635Z,44.97
2023-02-06T10:54:05.945Z,45.16
2023-02-06T10:55:10.224Z,45.16
2023-02-06T10:56:14.507Z,45.29
2023-02-06T10:57:18.821Z,45.38
2023-02-06T10:58:23.323Z,45.57
2023-02-06T10:59:27.611Z,45.75
2023-02-06T11:00:32.123Z,45.85
2023-02-06T11:01:36.793Z,45.88
2023-02-06T11:02:41.171Z,46.01
2023-02-06T11:03:45.421Z,46.03
2023-02-06T11:04:49.864Z,46.14
2023-02-06T11:05:54.168Z,46.3
2023-02-06T11:06:58.538Z,46.42
2023-02-06T11:08:02.856Z,46.51
2023-02-06T11:09:07.167Z,46.69
2023-02-06T11:10:11.451Z,46.84
2023-02-06T11:11:15.753Z,46.8
2023-02-06T11:12:20.071Z,47.24
2023-02-06T11:13:24.341Z,47.2
2023-02-06T11:14:28.664Z,47.43
2023-02-06T11:15:32.944Z,47.58
2023-02-06T11:16:37.442Z,47.75
2023-02-06T11:17:41.916Z,47.98
2023-02-06T11:18:46.259Z,47.97
2023-02-06T11:19:50.566Z,48.42
2023-02-06T11:20:57.779Z,48.3
2023-02-06T11:22:02.122Z,48.29
2023-02-06T11:23:06.519Z,48.73
2023-02-06T11:24:10.795Z,48.75
2023-02-06T11:25:15.077Z,48.83
2023-02-06T11:26:19.402Z,48.87
2023-02-06T11:27:23.675Z,49.03
2023-02-06T11:28:27.974Z,49.16
2023-02-06T11:29:32.255Z,49.16
2023-02-06T11:30:38.076Z,49.04
2023-02-06T11:31:44.087Z,49.25
2023-02-06T11:33:06.042Z,49.09
2023-02-06T11:34:10.347Z,49.27
2023-02-06T11:35:14.617Z,49.24
2023-02-06T11:36:18.907Z,49.04
2023-02-06T11:37:23.286Z,49.06
2023-02-06T11:38:27.620Z,49.11
2023-02-06T11:39:31.909Z,49.11
2023-02-06T11:40:37.392Z,49.12
2023-02-06T11:41:41.824Z,49.05
2023-02-06T11:42:46.106Z,49.2
2023-02-06T11:43:50.704Z,49.14
2023-02-06T11:44:55.068Z,48.92
2023-02-06T11:45:59.447Z,48.94
2023-02-06T11:47:03.769Z,48.92
2023-02-06T11:48:08.055Z,49.17
2023-02-06T11:49:12.495Z,49.08
2023-02-06T11:50:16.849Z,49
2023-02-06T11:51:21.142Z,49.17
2023-02-06T11:52:25.497Z,48.97
2023-02-06T11:53:29.825Z,48.96
2023-02-06T11:54:34.205Z,49.05
2023-02-06T11:55:39.894Z,49.03
2023-02-06T11:56:44.316Z,48.99
2023-02-06T11:57:48.609Z,49.05
2023-02-06T11:58:52.906Z,49.13
2023-02-06T11:59:57.197Z,49.16
2023-02-06T12:01:01.624Z,49.14
2023-02-06T12:02:06.092Z,49.26
2023-02-06T12:03:10.609Z,49.44
2023-02-06T12:04:14.938Z,49.12
2023-02-06T12:05:19.223Z,49.6
2023-02-06T12:06:23.522Z,49.7
2023-02-06T12:07:27.842Z,49.68
2023-02-06T12:08:32.111Z,49.78
2023-02-06T12:09:36.414Z,49.68
2023-02-06T12:10:40.689Z,49.75
2023-02-06T12:11:44.948Z,49.7
2023-02-06T12:12:49.229Z,49.52
2023-02-06T12:13:53.615Z,49.58
2023-02-06T12:14:58.054Z,49.56
2023-02-06T12:16:02.354Z,49.46
2023-02-06T12:17:06.660Z,49.32
2023-02-06T12:18:11.230Z,49.08
2023-02-06T12:19:15.525Z,48.86
2023-02-06T12:20:19.842Z,48.63
2023-02-06T12:21:24.109Z,48.43
2023-02-06T12:22:28.436Z,48.23
2023-02-06T12:23:32.707Z,48.1
2023-02-06T12:24:37.009Z,47.9
2023-02-06T12:25:41.401Z,47.85
2023-02-06T12:26:45.727Z,47.81
2023-02-06T12:27:50.170Z,47.61
2023-02-06T12:28:54.475Z,47.57
2023-02-06T12:29:58.794Z,47.52
2023-02-06T12:31:03.487Z,47.58
2023-02-06T12:32:07.939Z,47.56
2023-02-06T12:33:12.270Z,47.57
2023-02-06T12:34:16.583Z,47.62
2023-02-06T12:35:20.877Z,47.66
2023-02-06T12:36:25.172Z,47.64
2023-02-06T12:37:29.451Z,47.67
2023-02-06T12:38:33.757Z,47.65
2023-02-06T12:39:38.091Z,47.71
2023-02-06T12:40:42.386Z,47.7
2023-02-06T12:41:46.691Z,47.74
2023-02-06T12:42:52.032Z,47.74
2023-02-06T12:43:56.350Z,47.77
2023-02-06T12:45:00.678Z,47.83
2023-02-06T12:46:05.437Z,47.86
2023-02-06T12:47:09.775Z,47.85
2023-02-06T12:48:14.383Z,47.88
2023-02-06T12:49:18.710Z,47.9
2023-02-06T12:50:23.011Z,47.9
2023-02-06T12:51:27.309Z,47.93
2023-02-06T12:52:31.659Z,47.88
2023-02-06T12:53:35.930Z,48.02
2023-02-06T12:54:40.334Z,48.04
2023-02-06T12:55:44.607Z,48.18
2023-02-06T12:56:48.891Z,48.21
2023-02-06T12:57:54.189Z,48.23
2023-02-06T12:58:59.032Z,48.28
2023-02-06T13:00:03.360Z,48.33
2023-02-06T13:01:32.227Z,48.29
2023-02-06T13:02:37.626Z,48.38
2023-02-06T13:03:41.981Z,48.32
2023-02-06T13:04:46.257Z,48.36
2023-02-06T13:05:50.531Z,48.46
2023-02-06T13:06:54.949Z,48.21
2023-02-06T13:07:59.276Z,48.51
2023-02-06T13:09:03.593Z,48.37
2023-02-06T13:10:07.950Z,48.51
2023-02-06T13:11:12.275Z,48.44
2023-02-06T13:12:16.606Z,48.56
2023-02-06T13:13:20.883Z,48.53
2023-02-06T13:14:25.171Z,48.5
2023-02-06T13:15:29.594Z,48.41
2023-02-06T13:16:33.976Z,48.57
2023-02-06T13:17:38.270Z,48.59
2023-02-06T13:18:42.551Z,48.58
2023-02-06T13:19:46.844Z,48.49
2023-02-06T13:20:51.122Z,48.42
2023-02-06T13:21:55.410Z,48.46
2023-02-06T13:23:00.000Z,48.53
2023-02-06T13:24:04.386Z,48.56
2023-02-06T13:25:08.673Z,48.6
2023-02-06T13:26:13.023Z,48.55
2023-02-06T13:27:17.330Z,48.61
2023-02-06T13:28:21.856Z,48.55
2023-02-06T13:29:26.244Z,48.46
2023-02-06T13:30:31.094Z,48.62
2023-02-06T13:31:35.741Z,48.69
2023-02-06T13:32:42.694Z,48.6
2023-02-06T13:33:47.056Z,48.71
2023-02-06T13:34:51.381Z,48.66
2023-02-06T13:35:55.708Z,48.59
2023-02-06T13:37:00.034Z,48.66
2023-02-06T13:38:04.410Z,48.7
2023-02-06T13:39:08.708Z,48.72
2023-02-06T13:40:13.208Z,48.68
2023-02-06T13:41:17.686Z,48.48
2023-02-06T13:42:22.045Z,48.81
2023-02-06T13:43:26.369Z,48.79
2023-02-06T13:44:30.684Z,48.84
2023-02-06T13:45:35.120Z,48.89
2023-02-06T13:46:39.654Z,48.85
2023-02-06T13:47:44.022Z,48.93
2023-02-06T13:48:48.903Z,48.79
2023-02-06T13:49:53.255Z,48.98
2023-02-06T13:50:57.556Z,48.86
2023-02-06T13:52:01.865Z,48.84
2023-02-06T13:53:06.206Z,49.03
2023-02-06T13:54:10.534Z,48.79
2023-02-06T13:55:14.820Z,49.02